createdAt,value
2022-12-12T00:01:44.983Z,4.06
2022-12-12T00:04:13.763Z,3.95
2022-12-12T00:06:42.199Z,3.76
2022-12-12T00:09:10.726Z,3.87
2022-12-12T00:11:39.520Z,3.77
2022-12-12T00:14:09.428Z,3.52
2022-12-12T00:16:37.960Z,2.81
2022-12-12T00:19:06.300Z,3.45
2022-12-12T00:21:34.666Z,3.11
2022-12-12T00:24:03.014Z,3.24
2022-12-12T00:26:34.209Z,3.27
2022-12-12T00:29:04.827Z,3.24
2022-12-12T00:31:34.713Z,3.22
2022-12-12T00:34:05.149Z,3.11
2022-12-12T00:36:33.602Z,3.15
2022-12-12T00:39:02.081Z,3.13
2022-12-12T00:41:30.499Z,3.45
2022-12-12T00:43:58.811Z,2.90
2022-12-12T00:46:27.620Z,3.36
2022-12-12T00:48:59.230Z,3.29
2022-12-12T00:51:30.245Z,3.03
2022-12-12T00:53:59.817Z,2.60
2022-12-12T00:56:30.052Z,2.91
2022-12-12T00:58:58.556Z,3.29
2022-12-12T01:01:30.075Z,3.34
2022-12-12T01:04:00.188Z,3.09
2022-12-12T01:06:29.973Z,3.09
2022-12-12T01:08:58.785Z,2.82
2022-12-12T01:11:29.057Z,2.77
2022-12-12T01:13:57.548Z,2.54
2022-12-12T01:16:26.393Z,2.58
2022-12-12T01:18:55.020Z,2.59
2022-12-12T01:21:25.205Z,2.64
2022-12-12T01:23:53.808Z,2.53
2022-12-12T01:26:24.634Z,2.59
2022-12-12T01:28:53.913Z,2.70
2022-12-12T01:31:22.420Z,2.79
2022-12-12T01:33:51.079Z,1.04
2022-12-12T01:36:22.097Z,3.00
2022-12-12T01:38:57.099Z,2.93
2022-12-12T01:41:25.613Z,3.01
2022-12-12T01:43:55.939Z,2.90
2022-12-12T01:46:43.898Z,2.83
2022-12-12T01:49:21.879Z,2.71
2022-12-12T01:51:53.738Z,2.72
2022-12-12T01:54:27.894Z,2.84
2022-12-12T01:57:00.185Z,2.78
2022-12-12T01:59:29.331Z,2.69
2022-12-12T02:01:58.043Z,1.61
2022-12-12T02:04:28.951Z,2.77
2022-12-12T02:06:58.425Z,2.82
2022-12-12T02:09:28.672Z,2.75
2022-12-12T02:11:59.093Z,2.88
2022-12-12T02:14:31.927Z,2.88
2022-12-12T02:17:21.892Z,2.74
2022-12-12T02:20:45.552Z,2.67
2022-12-12T02:23:46.328Z,2.32
2022-12-12T02:27:03.953Z,2.48
2022-12-12T02:30:06.116Z,2.67
2022-12-12T02:33:03.969Z,2.57
2022-12-12T02:35:44.658Z,2.41
2022-12-12T02:38:23.673Z,2.43
2022-12-12T02:41:05.233Z,2.36
2022-12-12T02:43:40.940Z,2.27
2022-12-12T02:46:15.363Z,2.31
2022-12-12T02:48:52.290Z,2.16
2022-12-12T02:51:22.543Z,1.84
2022-12-12T02:53:52.606Z,2.19
2022-12-12T02:56:48.814Z,2.28
2022-12-12T02:59:23.467Z,2.14
2022-12-12T03:02:16.656Z,2.23
2022-12-12T03:05:32.436Z,2.26
2022-12-12T03:08:13.393Z,2.35
2022-12-12T03:10:53.695Z,2.15
2022-12-12T03:13:33.090Z,2.41
2022-12-12T03:16:14.905Z,2.17
2022-12-12T03:18:53.432Z,1.76
2022-12-12T03:21:34.008Z,1.89
2022-12-12T03:24:05.784Z,1.74
2022-12-12T03:26:43.375Z,2.08
2022-12-12T03:29:16.416Z,2.11
2022-12-12T03:31:50.003Z,1.98
2022-12-12T03:34:26.866Z,1.76
2022-12-12T03:37:04.199Z,1.94
2022-12-12T03:39:40.296Z,1.38
2022-12-12T03:42:20.535Z,1.87
2022-12-12T03:44:53.715Z,1.70
2022-12-12T03:47:26.898Z,2.27
2022-12-12T03:50:03.420Z,2.41
2022-12-12T03:52:39.158Z,2.37
2022-12-12T03:55:14.585Z,2.19
2022-12-12T03:57:50.872Z,1.99
2022-12-12T04:00:19.744Z,1.36
2022-12-12T04:02:55.231Z,1.59
2022-12-12T04:05:29.340Z,1.69
2022-12-12T04:08:08.605Z,-0.31
2022-12-12T04:11:03.461Z,1.38
2022-12-12T04:13:40.111Z,1.79
2022-12-12T04:16:13.176Z,1.18
2022-12-12T04:18:55.896Z,1.94
2022-12-12T04:21:52.355Z,1.74
2022-12-12T04:24:31.728Z,1.62
2022-12-12T04:27:07.847Z,1.39
2022-12-12T04:29:45.024Z,1.25
2022-12-12T04:32:21.185Z,1.28
2022-12-12T04:34:56.838Z,1.55
2022-12-12T04:37:30.339Z,1.27
2022-12-12T04:40:04.987Z,1.49
2022-12-12T04:42:38.074Z,1.44
2022-12-12T04:45:13.487Z,1.49
2022-12-12T04:47:45.426Z,1.24
2022-12-12T04:50:15.382Z,1.44
2022-12-12T04:52:46.536Z,1.45
2022-12-12T04:55:22.847Z,0.96
2022-12-12T04:57:54.847Z,1.22
2022-12-12T05:00:25.879Z,0.82
2022-12-12T05:03:03.607Z,0.87
2022-12-12T05:05:40.153Z,-1.34
2022-12-12T05:08:14.754Z,-1.63
2022-12-12T05:10:46.942Z,0.71
2022-12-12T05:13:18.699Z,1.21
2022-12-12T05:15:48.677Z,0.87
2022-12-12T05:18:17.585Z,1.50
2022-12-12T05:20:48.995Z,1.41
2022-12-12T05:23:18.089Z,1.18
2022-12-12T05:25:47.975Z,0.87
2022-12-12T05:28:16.372Z,1.21
2022-12-12T05:30:47.796Z,1.47
2022-12-12T05:33:16.253Z,1.58
2022-12-12T05:35:44.582Z,1.74
2022-12-12T05:38:12.984Z,1.74
2022-12-12T05:40:41.579Z,1.63
2022-12-12T05:43:11.285Z,1.94
2022-12-12T05:45:39.984Z,1.92
2022-12-12T05:48:10.804Z,1.72
2022-12-12T05:50:39.227Z,1.79
2022-12-12T05:53:07.569Z,1.73
2022-12-12T05:55:36.655Z,1.83
2022-12-12T05:58:05.269Z,1.75
2022-12-12T06:00:35.185Z,1.52
2022-12-12T06:03:03.554Z,1.80
2022-12-12T06:05:32.280Z,1.83
2022-12-12T06:08:00.720Z,1.56
2022-12-12T06:10:29.071Z,1.51
2022-12-12T06:12:57.536Z,1.24
2022-12-12T06:15:25.976Z,1.57
2022-12-12T06:17:55.717Z,1.57
2022-12-12T06:20:24.012Z,1.73
2022-12-12T06:22:54.009Z,1.77
2022-12-12T06:25:22.957Z,1.90
2022-12-12T06:27:51.686Z,1.81
2022-12-12T06:30:21.086Z,1.74
2022-12-12T06:32:49.531Z,1.22
2022-12-12T06:35:22.107Z,-0.60
2022-12-12T06:37:50.520Z,1.83
2022-12-12T06:40:19.219Z,1.82
2022-12-12T06:42:48.725Z,1.49
2022-12-12T06:45:17.933Z,1.80
2022-12-12T06:47:48.715Z,1.81
2022-12-12T06:50:23.508Z,1.76
2022-12-12T06:52:52.385Z,1.86
2022-12-12T06:55:23.618Z,1.51
2022-12-12T06:57:52.147Z,1.28
2022-12-12T07:00:21.910Z,1.81
2022-12-12T07:02:52.837Z,1.27
2022-12-12T07:05:25.768Z,0.81
2022-12-12T07:07:54.254Z,1.04
2022-12-12T07:10:22.711Z,1.13
2022-12-12T07:12:56.017Z,1.14
2022-12-12T07:15:25.903Z,0.97
2022-12-12T07:17:54.671Z,1.22
2022-12-12T07:20:23.042Z,0.82
2022-12-12T07:22:52.792Z,1.01
2022-12-12T07:25:24.046Z,1.34
2022-12-12T07:27:52.427Z,1.13
2022-12-12T07:30:24.055Z,0.41
2022-12-12T07:32:53.586Z,1.16
2022-12-12T07:35:21.987Z,0.57
2022-12-12T07:37:52.493Z,0.87
2022-12-12T07:40:24.128Z,0.91
2022-12-12T07:42:54.600Z,1.08
2022-12-12T07:45:25.708Z,1.10
2022-12-12T07:47:55.116Z,1.13
2022-12-12T07:50:24.427Z,1.02
2022-12-12T07:52:54.228Z,1.10
2022-12-12T07:55:22.658Z,0.91
2022-12-12T07:57:51.133Z,1.10
2022-12-12T08:00:22.577Z,1.02
2022-12-12T08:02:51.307Z,0.82
2022-12-12T08:05:19.878Z,0.67
2022-12-12T08:07:48.569Z,0.61
2022-12-12T08:10:20.873Z,0.54
2022-12-12T08:12:49.310Z,0.99
2022-12-12T08:15:20.549Z,0.91
2022-12-12T08:17:49.017Z,0.74
2022-12-12T08:20:20.744Z,0.78
2022-12-12T08:22:49.791Z,-0.69
2022-12-12T08:25:19.732Z,1.13
2022-12-12T08:27:48.198Z,1.19
2022-12-12T08:30:17.312Z,1.33
2022-12-12T08:32:45.953Z,1.03
2022-12-12T08:35:14.683Z,0.99
2022-12-12T08:37:43.261Z,0.82
2022-12-12T08:40:13.316Z,1.14
2022-12-12T08:42:43.106Z,0.95
2022-12-12T08:45:12.604Z,1.01
2022-12-12T08:47:42.222Z,0.76
2022-12-12T08:50:12.172Z,0.28
2022-12-12T08:52:40.560Z,0.35
2022-12-12T08:55:10.542Z,0.78
2022-12-12T08:57:39.134Z,0.95
2022-12-12T09:00:11.315Z,1.14
2022-12-12T09:02:39.779Z,1.19
2022-12-12T09:05:09.217Z,1.46
2022-12-12T09:07:38.060Z,1.53
2022-12-12T09:10:09.108Z,1.06
2022-12-12T09:12:41.624Z,1.59
2022-12-12T09:15:12.648Z,1.44
2022-12-12T09:17:41.712Z,1.57
2022-12-12T09:20:11.388Z,1.70
2022-12-12T09:22:40.282Z,1.55
2022-12-12T09:25:10.671Z,1.86
2022-12-12T09:27:39.066Z,1.56
2022-12-12T09:30:09.010Z,1.44
2022-12-12T09:32:38.845Z,1.30
2022-12-12T09:35:08.124Z,1.13
2022-12-12T09:37:36.500Z,1.28
2022-12-12T09:40:06.680Z,1.39
2022-12-12T09:42:36.837Z,1.55
2022-12-12T09:45:09.240Z,1.12
2022-12-12T09:47:44.702Z,0.85
2022-12-12T09:50:20.357Z,0.79
2022-12-12T09:52:48.963Z,0.60
2022-12-12T09:55:37.359Z,1.47
2022-12-12T09:58:19.093Z,1.19
2022-12-12T10:00:51.309Z,1.78
2022-12-12T10:03:44.112Z,1.40
2022-12-12T10:06:36.491Z,1.60
2022-12-12T10:09:25.654Z,1.60
2022-12-12T10:11:56.971Z,1.42
2022-12-12T10:14:34.469Z,1.81
2022-12-12T10:17:06.025Z,1.72
2022-12-12T10:19:49.773Z,2.08
2022-12-12T10:22:29.844Z,2.43
2022-12-12T10:25:07.750Z,2.82
2022-12-12T10:27:36.391Z,3.31
2022-12-12T10:30:18.021Z,3.03
2022-12-12T10:33:17.427Z,3.08
2022-12-12T10:35:55.626Z,3.21
2022-12-12T10:38:41.179Z,2.78
2022-12-12T10:41:18.016Z,3.52
2022-12-12T10:43:56.269Z,4.02
2022-12-12T10:46:31.538Z,4.24
2022-12-12T10:49:00.210Z,3.97
2022-12-12T10:51:31.002Z,3.99
2022-12-12T10:53:59.454Z,4.02
2022-12-12T10:56:30.271Z,3.88
2022-12-12T10:59:01.444Z,3.39
2022-12-12T11:02:07.700Z,3.04
2022-12-12T11:04:23.464Z,3.23
2022-12-12T11:06:55.010Z,3.39
2022-12-12T11:09:26.810Z,3.45
2022-12-12T11:12:01.278Z,3.88
2022-12-12T11:14:37.458Z,4.01
2022-12-12T11:17:22.576Z,3.79
2022-12-12T11:19:51.499Z,4.69
2022-12-12T11:22:22.712Z,4.46
2022-12-12T11:24:52.567Z,5.07
2022-12-12T11:27:24.761Z,5.15
2022-12-12T11:29:56.619Z,4.20
2022-12-12T11:32:29.888Z,4.86
2022-12-12T11:35:01.148Z,4.97
2022-12-12T11:37:39.694Z,4.80
2022-12-12T11:40:25.795Z,4.69
2022-12-12T11:43:08.456Z,4.78
2022-12-12T11:45:37.542Z,4.93
2022-12-12T11:48:44.710Z,5.12
2022-12-12T11:51:13.446Z,4.68
2022-12-12T11:53:46.955Z,4.67
2022-12-12T11:56:34.910Z,4.98
2022-12-12T11:59:26.386Z,5.43
2022-12-12T12:02:12.169Z,5.14
2022-12-12T12:04:53.572Z,5.81
2022-12-12T12:07:49.541Z,6.00
2022-12-12T12:10:34.118Z,6.13
2022-12-12T12:13:20.694Z,5.91
2022-12-12T12:15:56.978Z,5.70
2022-12-12T12:18:51.278Z,5.44
2022-12-12T12:21:34.332Z,5.84
2022-12-12T12:24:28.267Z,6.04
2022-12-12T12:27:09.927Z,5.73
2022-12-12T12:30:07.839Z,4.48
2022-12-12T12:32:50.125Z,6.26
2022-12-12T12:35:30.527Z,6.30
2022-12-12T12:38:15.562Z,6.30
2022-12-12T12:41:09.467Z,6.33
2022-12-12T12:43:57.775Z,6.60
2022-12-12T12:46:40.557Z,6.41
2022-12-12T12:49:16.462Z,5.74
2022-12-12T12:51:51.724Z,3.61
2022-12-12T12:54:25.128Z,5.19
2022-12-12T12:57:02.267Z,5.40
2022-12-12T12:59:38.759Z,5.20
2022-12-12T13:02:25.308Z,5.73
2022-12-12T13:05:03.657Z,5.88
2022-12-12T13:07:41.370Z,5.59
2022-12-12T13:10:20.734Z,6.59
2022-12-12T13:12:57.435Z,7.03
2022-12-12T13:15:32.318Z,7.40
2022-12-12T13:18:04.467Z,7.56
2022-12-12T13:20:36.806Z,7.78
2022-12-12T13:23:24.140Z,7.94
2022-12-12T13:25:58.989Z,8.14
2022-12-12T13:28:32.698Z,7.94
2022-12-12T13:31:33.183Z,8.27
2022-12-12T13:34:07.777Z,8.45
2022-12-12T13:36:38.822Z,8.37
2022-12-12T13:39:10.007Z,8.25
2022-12-12T13:42:01.646Z,8.56
2022-12-12T13:44:40.559Z,8.11
2022-12-12T13:48:00.906Z,8.72
2022-12-12T13:50:29.960Z,8.75
2022-12-12T13:53:20.809Z,8.43
2022-12-12T13:55:49.387Z,9.10
2022-12-12T13:58:37.321Z,9.23
2022-12-12T14:01:39.207Z,9.21
2022-12-12T14:04:26.748Z,9.07
2022-12-12T14:07:05.987Z,9.18
2022-12-12T14:09:47.911Z,9.09
2022-12-12T14:12:24.876Z,8.63
2022-12-12T14:14:59.363Z,9.25
2022-12-12T14:17:40.048Z,8.75
2022-12-12T14:20:29.224Z,8.41
2022-12-12T14:23:25.983Z,8.92
2022-12-12T14:25:54.837Z,8.60
2022-12-12T14:28:26.478Z,8.42
2022-12-12T14:31:11.706Z,5.88
2022-12-12T14:34:21.916Z,8.41
2022-12-12T14:37:34.562Z,8.23
2022-12-12T14:40:12.599Z,8.21
2022-12-12T14:43:20.402Z,8.05
2022-12-12T14:45:54.387Z,8.03
2022-12-12T14:48:26.079Z,7.66
2022-12-12T14:51:04.699Z,7.52
2022-12-12T14:53:47.565Z,7.04
2022-12-12T14:56:18.718Z,5.85
2022-12-12T14:58:51.673Z,4.82
2022-12-12T15:01:32.395Z,4.90
2022-12-12T15:04:01.763Z,4.65
2022-12-12T15:06:34.348Z,4.44
2022-12-12T15:09:25.959Z,4.50
2022-12-12T15:12:04.552Z,4.69
2022-12-12T15:14:33.253Z,4.56
2022-12-12T15:17:05.993Z,4.71
2022-12-12T15:19:40.422Z,4.46
2022-12-12T15:22:13.099Z,4.54
2022-12-12T15:24:42.913Z,4.86
2022-12-12T15:27:24.963Z,4.69
2022-12-12T15:29:53.650Z,4.50
2022-12-12T15:32:25.178Z,4.84
2022-12-12T15:35:05.021Z,4.96
2022-12-12T15:37:38.592Z,4.75
2022-12-12T15:40:24.935Z,4.66
2022-12-12T15:42:57.625Z,3.81
2022-12-12T15:45:31.938Z,4.48
2022-12-12T15:48:01.182Z,4.57
2022-12-12T15:50:36.969Z,4.33
2022-12-12T15:53:18.599Z,3.87
2022-12-12T15:56:02.649Z,3.40
2022-12-12T15:58:34.817Z,3.60
2022-12-12T16:01:08.529Z,3.07
2022-12-12T16:03:59.176Z,3.23
2022-12-12T16:06:30.543Z,3.25
2022-12-12T16:09:09.576Z,2.92
2022-12-12T16:11:47.302Z,3.14
2022-12-12T16:14:40.175Z,3.04
2022-12-12T16:17:14.467Z,3.08
2022-12-12T16:19:47.616Z,2.91
2022-12-12T16:22:34.433Z,2.87
2022-12-12T16:25:19.227Z,2.95
2022-12-12T16:27:53.739Z,2.64
2022-12-12T16:30:22.358Z,2.87
2022-12-12T16:32:50.806Z,2.92
2022-12-12T16:35:24.349Z,2.85
2022-12-12T16:37:55.522Z,3.15
2022-12-12T16:40:24.702Z,3.06
2022-12-12T16:43:04.769Z,3.11
2022-12-12T16:45:36.256Z,2.73
2022-12-12T16:48:15.429Z,2.94
2022-12-12T16:50:44.445Z,2.83
2022-12-12T16:53:13.206Z,3.03
2022-12-12T16:55:44.313Z,3.17
2022-12-12T16:58:14.120Z,3.20
2022-12-12T17:00:43.012Z,3.34
2022-12-12T17:03:14.757Z,1.97
2022-12-12T17:05:44.075Z,3.61
2022-12-12T17:08:13.001Z,3.68
2022-12-12T17:10:41.649Z,3.59
2022-12-12T17:13:17.010Z,3.56
2022-12-12T17:15:45.593Z,3.11
2022-12-12T17:18:14.789Z,3.56
2022-12-12T17:20:43.643Z,3.50
2022-12-12T17:23:28.950Z,3.69
2022-12-12T17:26:03.450Z,3.60
2022-12-12T17:28:35.231Z,3.64
2022-12-12T17:31:05.019Z,3.49
2022-12-12T17:33:33.433Z,3.87
2022-12-12T17:36:03.485Z,3.90
2022-12-12T17:38:31.981Z,4.07
2022-12-12T17:41:04.908Z,3.95
2022-12-12T17:43:34.710Z,4.09
2022-12-12T17:46:05.491Z,3.80
2022-12-12T17:48:36.749Z,3.56
2022-12-12T17:51:07.540Z,3.54
2022-12-12T17:53:38.379Z,3.11
2022-12-12T17:56:09.314Z,3.14
2022-12-12T17:58:41.031Z,1.66
2022-12-12T18:01:15.243Z,3.61
2022-12-12T18:03:45.501Z,3.64
2022-12-12T18:06:15.574Z,3.72
2022-12-12T18:08:45.345Z,3.76
2022-12-12T18:11:16.936Z,3.78
2022-12-12T18:13:48.754Z,3.12
2022-12-12T18:16:18.263Z,2.07
2022-12-12T18:18:47.056Z,2.71
2022-12-12T18:21:43.352Z,2.82
2022-12-12T18:24:09.827Z,2.69
2022-12-12T18:26:38.395Z,2.45
2022-12-12T18:29:10.011Z,2.72
2022-12-12T18:31:38.612Z,2.70
2022-12-12T18:34:08.200Z,2.52
2022-12-12T18:36:36.963Z,2.23
2022-12-12T18:39:07.865Z,2.88
2022-12-12T18:41:37.547Z,2.83
2022-12-12T18:44:09.473Z,2.82
2022-12-12T18:46:42.648Z,2.61
2022-12-12T18:49:15.155Z,2.74
2022-12-12T18:51:45.112Z,1.37
2022-12-12T18:54:16.332Z,2.81
2022-12-12T18:56:46.030Z,2.90
2022-12-12T18:59:16.606Z,2.95
2022-12-12T19:01:45.699Z,3.30
2022-12-12T19:04:22.455Z,3.20
2022-12-12T19:06:53.836Z,3.41
2022-12-12T19:09:23.041Z,3.42
2022-12-12T19:11:58.211Z,3.25
2022-12-12T19:17:25.676Z,2.79
2022-12-12T19:19:55.289Z,3.18
2022-12-12T19:25:12.392Z,3.28
2022-12-12T19:27:40.893Z,3.21
2022-12-12T19:30:15.147Z,3.16
2022-12-12T19:32:45.782Z,3.41
2022-12-12T19:35:14.649Z,3.42
2022-12-12T19:37:43.025Z,3.46
2022-12-12T19:40:13.740Z,3.39
2022-12-12T19:42:42.801Z,2.98
2022-12-12T19:45:12.755Z,3.28
2022-12-12T19:47:42.229Z,3.45
2022-12-12T19:50:11.400Z,3.31
2022-12-12T19:52:40.010Z,3.35
2022-12-12T19:55:09.730Z,3.37
2022-12-12T19:57:38.116Z,3.43
2022-12-12T20:00:09.575Z,3.48
2022-12-12T20:02:39.277Z,3.46
2022-12-12T20:05:08.179Z,3.44
2022-12-12T20:07:36.730Z,3.51
2022-12-12T20:10:06.548Z,3.50
2022-12-12T20:12:34.966Z,3.23
2022-12-12T20:15:03.584Z,3.41
2022-12-12T20:17:32.096Z,3.45
2022-12-12T20:20:01.773Z,3.42
2022-12-12T20:22:30.128Z,3.44
2022-12-12T20:24:58.475Z,2.65
2022-12-12T20:27:28.140Z,3.17
2022-12-12T20:29:56.732Z,3.38
2022-12-12T20:32:25.094Z,3.38
2022-12-12T20:34:53.513Z,3.14
2022-12-12T20:37:23.302Z,3.18
2022-12-12T20:39:51.818Z,3.06
2022-12-12T20:42:20.372Z,3.05
2022-12-12T20:44:50.466Z,2.39
2022-12-12T20:47:20.688Z,2.94
2022-12-12T20:49:50.462Z,3.02
2022-12-12T20:52:20.529Z,2.84
2022-12-12T20:54:50.515Z,2.79
2022-12-12T20:57:18.892Z,2.52
2022-12-12T20:59:49.522Z,2.47
2022-12-12T21:02:18.046Z,2.58
2022-12-12T21:04:46.650Z,2.37
2022-12-12T21:07:15.281Z,1.92
2022-12-12T21:09:44.223Z,2.71
2022-12-12T21:12:15.495Z,2.75
2022-12-12T21:14:43.848Z,2.69
2022-12-12T21:17:12.269Z,2.82
2022-12-12T21:19:40.752Z,2.82
2022-12-12T21:22:09.265Z,2.57
2022-12-12T21:24:39.493Z,2.84
2022-12-12T21:27:08.067Z,2.78
2022-12-12T21:29:37.824Z,2.87
2022-12-12T21:32:06.789Z,2.82
2022-12-12T21:34:35.470Z,2.79
2022-12-12T21:37:03.813Z,2.75
2022-12-12T21:39:32.176Z,2.76
2022-12-12T21:42:03.563Z,2.63
2022-12-12T21:44:31.995Z,2.79
2022-12-12T21:47:01.922Z,2.72
2022-12-12T21:49:32.083Z,2.80
2022-12-12T21:52:02.794Z,2.80
2022-12-12T21:54:31.979Z,1.70
2022-12-12T21:57:02.154Z,2.82
2022-12-12T21:59:31.085Z,2.39
2022-12-12T22:02:02.122Z,1.18
2022-12-12T22:04:31.051Z,2.55
2022-12-12T22:06:59.789Z,2.78
2022-12-12T22:09:28.491Z,2.50
2022-12-12T22:12:04.001Z,2.75
2022-12-12T22:14:34.168Z,2.33
2022-12-12T22:17:05.018Z,2.32
2022-12-12T22:19:33.520Z,1.75
2022-12-12T22:22:02.162Z,2.58
2022-12-12T22:24:30.614Z,2.57
2022-12-12T22:26:58.964Z,2.40
2022-12-12T22:29:27.504Z,2.44
2022-12-12T22:31:56.044Z,2.64
2022-12-12T22:34:26.448Z,2.31
2022-12-12T22:36:55.894Z,2.40
2022-12-12T22:39:26.758Z,2.44
2022-12-12T22:41:58.212Z,2.40
2022-12-12T22:44:29.875Z,2.52
2022-12-12T22:46:58.970Z,2.58
2022-12-12T22:49:28.985Z,2.07
2022-12-12T22:51:58.962Z,2.46
2022-12-12T22:54:29.205Z,2.27
2022-12-12T22:56:57.597Z,2.16
2022-12-12T22:59:26.116Z,2.03
2022-12-12T23:01:54.614Z,1.87
2022-12-12T23:04:23.072Z,2.15
2022-12-12T23:06:52.941Z,2.06
2022-12-12T23:09:26.201Z,1.82
2022-12-12T23:11:55.241Z,1.93
2022-12-12T23:14:26.769Z,1.62
2022-12-12T23:16:56.282Z,1.70
2022-12-12T23:19:27.330Z,1.28
2022-12-12T23:21:57.108Z,1.33
2022-12-12T23:24:25.718Z,1.44
2022-12-12T23:26:54.319Z,1.62
2022-12-12T23:29:23.277Z,1.62
2022-12-12T23:31:54.524Z,0.83
2022-12-12T23:34:25.587Z,0.38
2022-12-12T23:36:56.744Z,0.97
2022-12-12T23:39:30.601Z,1.56
2022-12-12T23:41:59.070Z,1.34
2022-12-12T23:44:27.481Z,1.56
2022-12-12T23:47:00.527Z,1.43
2022-12-12T23:49:28.886Z,1.52
2022-12-12T23:52:00.313Z,1.53
2022-12-12T23:54:32.627Z,1.60
2022-12-12T23:57:01.591Z,1.59
2022-12-12T23:59:30.431Z,1.27
